sensor_id;sensor_type;location;lat;lon;timestamp;P1;durP1;ratioP1;P2;durP2;ratioP2
51660;SDS011;37741;49.748;8.490;2024-02-26T00:02:02;3.00;;;1.58;;
51660;SDS011;37741;49.748;8.490;2024-02-26T00:04:28;3.22;;;1.85;;
51660;SDS011;37741;49.748;8.490;2024-02-26T00:06:53;3.85;;;1.90;;
51660;SDS011;37741;49.748;8.490;2024-02-26T00:09:19;2.42;;;1.42;;
51660;SDS011;37741;49.748;8.490;2024-02-26T00:11:45;3.20;;;1.90;;
51660;SDS011;37741;49.748;8.490;2024-02-26T00:14:11;3.95;;;1.70;;
51660;SDS011;37741;49.748;8.490;2024-02-26T00:16:39;2.70;;;1.67;;
51660;SDS011;37741;49.748;8.490;2024-02-26T00:19:05;2.83;;;1.52;;
51660;SDS011;37741;49.748;8.490;2024-02-26T00:21:31;3.53;;;2.00;;
51660;SDS011;37741;49.748;8.490;2024-02-26T00:23:57;3.58;;;1.83;;
51660;SDS011;37741;49.748;8.490;2024-02-26T00:26:22;2.88;;;1.30;;
51660;SDS011;37741;49.748;8.490;2024-02-26T00:28:48;3.53;;;1.60;;
51660;SDS011;37741;49.748;8.490;2024-02-26T00:31:13;2.15;;;1.08;;
51660;SDS011;37741;49.748;8.490;2024-02-26T00:33:39;3.33;;;1.42;;
51660;SDS011;37741;49.748;8.490;2024-02-26T00:36:05;3.95;;;1.75;;
51660;SDS011;37741;49.748;8.490;2024-02-26T00:38:31;3.10;;;1.70;;
51660;SDS011;37741;49.748;8.490;2024-02-26T00:40:57;3.67;;;1.77;;
51660;SDS011;37741;49.748;8.490;2024-02-26T00:43:22;2.70;;;1.60;;
51660;SDS011;37741;49.748;8.490;2024-02-26T00:45:48;3.42;;;1.75;;
51660;SDS011;37741;49.748;8.490;2024-02-26T00:48:14;3.17;;;1.50;;
51660;SDS011;37741;49.748;8.490;2024-02-26T00:50:39;3.30;;;1.60;;
51660;SDS011;37741;49.748;8.490;2024-02-26T00:53:05;3.50;;;1.70;;
51660;SDS011;37741;49.748;8.490;2024-02-26T00:55:31;2.35;;;1.30;;
51660;SDS011;37741;49.748;8.490;2024-02-26T00:57:56;3.10;;;1.63;;
51660;SDS011;37741;49.748;8.490;2024-02-26T01:00:22;2.88;;;1.83;;
51660;SDS011;37741;49.748;8.490;2024-02-26T01:02:48;4.78;;;1.90;;
51660;SDS011;37741;49.748;8.490;2024-02-26T01:05:13;3.03;;;1.40;;
51660;SDS011;37741;49.748;8.490;2024-02-26T01:07:41;2.95;;;1.52;;
51660;SDS011;37741;49.748;8.490;2024-02-26T01:10:07;3.13;;;1.58;;
51660;SDS011;37741;49.748;8.490;2024-02-26T01:12:33;4.10;;;1.65;;
51660;SDS011;37741;49.748;8.490;2024-02-26T01:15:00;2.92;;;1.80;;
51660;SDS011;37741;49.748;8.490;2024-02-26T01:17:29;4.20;;;1.95;;
51660;SDS011;37741;49.748;8.490;2024-02-26T01:19:57;3.58;;;1.60;;
51660;SDS011;37741;49.748;8.490;2024-02-26T01:22:26;4.57;;;2.00;;
51660;SDS011;37741;49.748;8.490;2024-02-26T01:24:52;3.47;;;1.88;;
51660;SDS011;37741;49.748;8.490;2024-02-26T01:27:18;3.42;;;1.95;;
51660;SDS011;37741;49.748;8.490;2024-02-26T01:29:44;3.05;;;1.63;;
51660;SDS011;37741;49.748;8.490;2024-02-26T01:32:10;4.72;;;2.10;;
51660;SDS011;37741;49.748;8.490;2024-02-26T01:34:36;3.33;;;1.55;;
51660;SDS011;37741;49.748;8.490;2024-02-26T01:37:02;3.30;;;1.55;;
51660;SDS011;37741;49.748;8.490;2024-02-26T01:39:28;3.80;;;1.70;;
51660;SDS011;37741;49.748;8.490;2024-02-26T01:41:55;3.78;;;1.63;;
51660;SDS011;37741;49.748;8.490;2024-02-26T01:44:21;4.45;;;1.95;;
51660;SDS011;37741;49.748;8.490;2024-02-26T01:46:46;3.17;;;1.63;;
51660;SDS011;37741;49.748;8.490;2024-02-26T01:49:13;3.75;;;1.77;;
51660;SDS011;37741;49.748;8.490;2024-02-26T01:51:39;2.75;;;1.52;;
51660;SDS011;37741;49.748;8.490;2024-02-26T01:54:10;3.60;;;1.88;;
51660;SDS011;37741;49.748;8.490;2024-02-26T01:56:36;2.63;;;1.65;;
51660;SDS011;37741;49.748;8.490;2024-02-26T01:59:03;4.22;;;2.00;;
51660;SDS011;37741;49.748;8.490;2024-02-26T02:01:31;3.15;;;2.15;;
51660;SDS011;37741;49.748;8.490;2024-02-26T02:03:57;4.00;;;2.33;;
51660;SDS011;37741;49.748;8.490;2024-02-26T02:06:24;3.63;;;2.20;;
51660;SDS011;37741;49.748;8.490;2024-02-26T02:08:52;3.70;;;1.75;;
51660;SDS011;37741;49.748;8.490;2024-02-26T02:11:18;3.30;;;1.98;;
51660;SDS011;37741;49.748;8.490;2024-02-26T02:13:44;3.40;;;2.03;;
51660;SDS011;37741;49.748;8.490;2024-02-26T02:16:10;4.13;;;2.00;;
51660;SDS011;37741;49.748;8.490;2024-02-26T02:18:39;3.60;;;2.22;;
51660;SDS011;37741;49.748;8.490;2024-02-26T02:21:05;5.10;;;2.35;;
51660;SDS011;37741;49.748;8.490;2024-02-26T02:23:30;3.75;;;2.22;;
51660;SDS011;37741;49.748;8.490;2024-02-26T02:25:56;6.18;;;2.88;;
51660;SDS011;37741;49.748;8.490;2024-02-26T02:28:25;3.88;;;2.13;;
51660;SDS011;37741;49.748;8.490;2024-02-26T02:30:52;4.32;;;2.40;;
51660;SDS011;37741;49.748;8.490;2024-02-26T02:33:18;4.90;;;2.40;;
51660;SDS011;37741;49.748;8.490;2024-02-26T02:35:44;4.35;;;2.50;;
51660;SDS011;37741;49.748;8.490;2024-02-26T02:38:10;5.07;;;2.63;;
51660;SDS011;37741;49.748;8.490;2024-02-26T02:40:36;4.82;;;2.75;;
51660;SDS011;37741;49.748;8.490;2024-02-26T02:43:02;4.22;;;2.58;;
51660;SDS011;37741;49.748;8.490;2024-02-26T02:45:28;5.30;;;3.13;;
51660;SDS011;37741;49.748;8.490;2024-02-26T02:47:53;5.72;;;3.20;;
51660;SDS011;37741;49.748;8.490;2024-02-26T02:50:19;4.88;;;2.60;;
51660;SDS011;37741;49.748;8.490;2024-02-26T02:52:45;3.60;;;2.50;;
51660;SDS011;37741;49.748;8.490;2024-02-26T02:55:10;3.78;;;2.28;;
51660;SDS011;37741;49.748;8.490;2024-02-26T02:57:36;4.32;;;2.88;;
51660;SDS011;37741;49.748;8.490;2024-02-26T03:00:09;4.70;;;3.15;;
51660;SDS011;37741;49.748;8.490;2024-02-26T03:02:35;3.92;;;2.55;;
51660;SDS011;37741;49.748;8.490;2024-02-26T03:05:01;4.82;;;3.17;;
51660;SDS011;37741;49.748;8.490;2024-02-26T03:07:30;4.28;;;2.65;;
51660;SDS011;37741;49.748;8.490;2024-02-26T03:09:56;5.60;;;3.00;;
51660;SDS011;37741;49.748;8.490;2024-02-26T03:12:22;4.63;;;2.60;;
51660;SDS011;37741;49.748;8.490;2024-02-26T03:14:47;4.38;;;2.85;;
51660;SDS011;37741;49.748;8.490;2024-02-26T03:17:13;4.28;;;2.75;;
51660;SDS011;37741;49.748;8.490;2024-02-26T03:19:39;4.85;;;2.90;;
51660;SDS011;37741;49.748;8.490;2024-02-26T03:22:04;4.07;;;2.70;;
51660;SDS011;37741;49.748;8.490;2024-02-26T03:24:30;4.20;;;2.80;;
51660;SDS011;37741;49.748;8.490;2024-02-26T03:26:56;4.78;;;2.72;;
51660;SDS011;37741;49.748;8.490;2024-02-26T03:29:22;4.13;;;2.55;;
51660;SDS011;37741;49.748;8.490;2024-02-26T03:31:48;3.97;;;2.25;;
51660;SDS011;37741;49.748;8.490;2024-02-26T03:34:13;4.53;;;2.50;;
51660;SDS011;37741;49.748;8.490;2024-02-26T03:36:39;4.68;;;2.90;;
51660;SDS011;37741;49.748;8.490;2024-02-26T03:39:06;4.30;;;2.60;;
51660;SDS011;37741;49.748;8.490;2024-02-26T03:41:35;6.25;;;3.20;;
51660;SDS011;37741;49.748;8.490;2024-02-26T03:44:01;4.70;;;2.33;;
51660;SDS011;37741;49.748;8.490;2024-02-26T03:46:27;4.20;;;2.75;;
51660;SDS011;37741;49.748;8.490;2024-02-26T03:48:53;5.90;;;2.90;;
51660;SDS011;37741;49.748;8.490;2024-02-26T03:51:19;7.15;;;2.60;;
51660;SDS011;37741;49.748;8.490;2024-02-26T03:53:44;5.40;;;3.03;;
51660;SDS011;37741;49.748;8.490;2024-02-26T03:56:13;4.68;;;2.78;;
51660;SDS011;37741;49.748;8.490;2024-02-26T03:58:41;3.75;;;2.35;;
51660;SDS011;37741;49.748;8.490;2024-02-26T04:01:07;4.22;;;2.65;;
51660;SDS011;37741;49.748;8.490;2024-02-26T04:03:33;4.57;;;2.53;;
51660;SDS011;37741;49.748;8.490;2024-02-26T04:05:59;4.38;;;2.75;;
51660;SDS011;37741;49.748;8.490;2024-02-26T04:08:25;3.83;;;2.38;;
51660;SDS011;37741;49.748;8.490;2024-02-26T04:10:50;4.13;;;2.50;;
51660;SDS011;37741;49.748;8.490;2024-02-26T04:13:17;4.20;;;2.53;;
51660;SDS011;37741;49.748;8.490;2024-02-26T04:15:46;4.20;;;2.33;;
51660;SDS011;37741;49.748;8.490;2024-02-26T04:18:12;4.05;;;2.78;;
51660;SDS011;37741;49.748;8.490;2024-02-26T04:20:38;4.15;;;2.13;;
51660;SDS011;37741;49.748;8.490;2024-02-26T04:23:03;4.05;;;2.17;;
51660;SDS011;37741;49.748;8.490;2024-02-26T04:25:29;4.10;;;2.47;;
51660;SDS011;37741;49.748;8.490;2024-02-26T04:27:55;4.68;;;3.05;;
51660;SDS011;37741;49.748;8.490;2024-02-26T04:30:20;3.58;;;2.30;;
51660;SDS011;37741;49.748;8.490;2024-02-26T04:32:46;4.20;;;2.20;;
51660;SDS011;37741;49.748;8.490;2024-02-26T04:35:11;3.58;;;2.38;;
51660;SDS011;37741;49.748;8.490;2024-02-26T04:37:37;4.60;;;2.35;;
51660;SDS011;37741;49.748;8.490;2024-02-26T04:40:03;4.95;;;2.38;;
51660;SDS011;37741;49.748;8.490;2024-02-26T04:42:29;4.32;;;2.30;;
51660;SDS011;37741;49.748;8.490;2024-02-26T04:44:57;5.10;;;2.47;;
51660;SDS011;37741;49.748;8.490;2024-02-26T04:47:26;4.15;;;2.45;;
51660;SDS011;37741;49.748;8.490;2024-02-26T04:49:52;4.15;;;2.67;;
51660;SDS011;37741;49.748;8.490;2024-02-26T04:52:18;3.83;;;2.40;;
51660;SDS011;37741;49.748;8.490;2024-02-26T04:54:46;3.75;;;2.20;;
51660;SDS011;37741;49.748;8.490;2024-02-26T04:57:12;3.58;;;2.10;;
51660;SDS011;37741;49.748;8.490;2024-02-26T04:59:38;3.78;;;2.05;;
51660;SDS011;37741;49.748;8.490;2024-02-26T05:02:05;3.28;;;1.95;;
51660;SDS011;37741;49.748;8.490;2024-02-26T05:04:31;3.63;;;1.88;;
51660;SDS011;37741;49.748;8.490;2024-02-26T05:06:57;4.20;;;2.60;;
51660;SDS011;37741;49.748;8.490;2024-02-26T05:09:23;4.20;;;2.13;;
51660;SDS011;37741;49.748;8.490;2024-02-26T05:11:48;3.33;;;1.88;;
51660;SDS011;37741;49.748;8.490;2024-02-26T05:14:20;3.75;;;2.30;;
51660;SDS011;37741;49.748;8.490;2024-02-26T05:16:46;4.43;;;2.05;;
51660;SDS011;37741;49.748;8.490;2024-02-26T05:19:12;3.40;;;2.08;;
51660;SDS011;37741;49.748;8.490;2024-02-26T05:21:38;3.05;;;1.88;;
51660;SDS011;37741;49.748;8.490;2024-02-26T05:24:12;5.28;;;2.28;;
51660;SDS011;37741;49.748;8.490;2024-02-26T05:26:51;3.28;;;1.77;;
51660;SDS011;37741;49.748;8.490;2024-02-26T05:29:21;4.15;;;2.45;;
51660;SDS011;37741;49.748;8.490;2024-02-26T05:31:47;4.53;;;2.03;;
51660;SDS011;37741;49.748;8.490;2024-02-26T05:34:12;3.85;;;2.20;;
51660;SDS011;37741;49.748;8.490;2024-02-26T05:36:38;3.97;;;2.38;;
51660;SDS011;37741;49.748;8.490;2024-02-26T05:39:04;3.55;;;1.60;;
51660;SDS011;37741;49.748;8.490;2024-02-26T05:41:29;3.05;;;1.83;;
51660;SDS011;37741;49.748;8.490;2024-02-26T05:43:55;3.33;;;1.77;;
51660;SDS011;37741;49.748;8.490;2024-02-26T05:46:27;3.42;;;2.17;;
51660;SDS011;37741;49.748;8.490;2024-02-26T05:49:04;3.70;;;2.40;;
51660;SDS011;37741;49.748;8.490;2024-02-26T05:51:33;4.95;;;1.83;;
51660;SDS011;37741;49.748;8.490;2024-02-26T05:54:05;3.20;;;1.77;;
51660;SDS011;37741;49.748;8.490;2024-02-26T05:56:31;2.83;;;1.50;;
51660;SDS011;37741;49.748;8.490;2024-02-26T05:58:59;4.07;;;2.50;;
51660;SDS011;37741;49.748;8.490;2024-02-26T06:01:34;4.10;;;2.10;;
51660;SDS011;37741;49.748;8.490;2024-02-26T06:04:02;5.80;;;1.73;;
51660;SDS011;37741;49.748;8.490;2024-02-26T06:09:24;3.72;;;1.90;;
51660;SDS011;37741;49.748;8.490;2024-02-26T06:12:28;4.32;;;1.92;;
51660;SDS011;37741;49.748;8.490;2024-02-26T06:17:47;3.00;;;1.70;;
51660;SDS011;37741;49.748;8.490;2024-02-26T06:20:22;3.25;;;1.65;;
51660;SDS011;37741;49.748;8.490;2024-02-26T06:22:55;4.07;;;2.10;;
51660;SDS011;37741;49.748;8.490;2024-02-26T06:25:20;3.08;;;1.85;;
51660;SDS011;37741;49.748;8.490;2024-02-26T06:27:46;2.78;;;1.77;;
51660;SDS011;37741;49.748;8.490;2024-02-26T06:30:12;2.97;;;1.65;;
51660;SDS011;37741;49.748;8.490;2024-02-26T06:32:43;5.32;;;2.00;;
51660;SDS011;37741;49.748;8.490;2024-02-26T06:35:09;3.78;;;1.70;;
51660;SDS011;37741;49.748;8.490;2024-02-26T06:37:44;3.17;;;1.92;;
51660;SDS011;37741;49.748;8.490;2024-02-26T06:40:34;3.53;;;1.90;;
51660;SDS011;37741;49.748;8.490;2024-02-26T06:43:14;2.80;;;1.73;;
51660;SDS011;37741;49.748;8.490;2024-02-26T06:45:39;3.38;;;1.55;;
51660;SDS011;37741;49.748;8.490;2024-02-26T06:48:05;3.65;;;1.80;;
51660;SDS011;37741;49.748;8.490;2024-02-26T06:50:32;3.40;;;1.50;;
51660;SDS011;37741;49.748;8.490;2024-02-26T06:52:57;3.00;;;1.70;;
51660;SDS011;37741;49.748;8.490;2024-02-26T06:55:26;2.75;;;1.65;;
51660;SDS011;37741;49.748;8.490;2024-02-26T06:57:52;4.50;;;1.58;;
51660;SDS011;37741;49.748;8.490;2024-02-26T07:00:18;2.97;;;1.30;;
51660;SDS011;37741;49.748;8.490;2024-02-26T07:02:44;5.53;;;1.75;;
51660;SDS011;37741;49.748;8.490;2024-02-26T07:05:09;3.90;;;2.17;;
51660;SDS011;37741;49.748;8.490;2024-02-26T07:07:35;3.40;;;1.60;;
51660;SDS011;37741;49.748;8.490;2024-02-26T07:10:01;3.65;;;1.50;;
51660;SDS011;37741;49.748;8.490;2024-02-26T07:12:29;2.90;;;1.60;;
51660;SDS011;37741;49.748;8.490;2024-02-26T07:14:55;3.67;;;1.60;;
51660;SDS011;37741;49.748;8.490;2024-02-26T07:17:21;3.65;;;2.40;;
51660;SDS011;37741;49.748;8.490;2024-02-26T07:19:47;4.80;;;1.92;;
51660;SDS011;37741;49.748;8.490;2024-02-26T07:22:12;2.50;;;1.35;;
51660;SDS011;37741;49.748;8.490;2024-02-26T07:24:39;4.22;;;1.90;;
51660;SDS011;37741;49.748;8.490;2024-02-26T07:27:04;4.57;;;1.90;;
51660;SDS011;37741;49.748;8.490;2024-02-26T07:29:30;2.65;;;1.60;;
51660;SDS011;37741;49.748;8.490;2024-02-26T07:31:59;5.57;;;1.80;;
51660;SDS011;37741;49.748;8.490;2024-02-26T07:34:28;2.65;;;1.30;;
51660;SDS011;37741;49.748;8.490;2024-02-26T07:36:55;2.45;;;1.20;;
51660;SDS011;37741;49.748;8.490;2024-02-26T07:39:21;3.40;;;1.77;;
51660;SDS011;37741;49.748;8.490;2024-02-26T07:41:47;2.35;;;1.25;;
51660;SDS011;37741;49.748;8.490;2024-02-26T07:44:16;3.60;;;1.67;;
51660;SDS011;37741;49.748;8.490;2024-02-26T07:46:42;3.40;;;1.75;;
51660;SDS011;37741;49.748;8.490;2024-02-26T07:49:08;3.88;;;1.67;;
51660;SDS011;37741;49.748;8.490;2024-02-26T07:51:33;2.70;;;1.55;;
51660;SDS011;37741;49.748;8.490;2024-02-26T07:54:00;2.58;;;1.50;;
51660;SDS011;37741;49.748;8.490;2024-02-26T07:56:26;3.35;;;1.60;;
51660;SDS011;37741;49.748;8.490;2024-02-26T07:58:51;2.80;;;1.55;;
51660;SDS011;37741;49.748;8.490;2024-02-26T08:01:17;3.13;;;1.55;;
51660;SDS011;37741;49.748;8.490;2024-02-26T08:03:43;4.20;;;1.38;;
51660;SDS011;37741;49.748;8.490;2024-02-26T08:06:08;2.90;;;1.45;;
51660;SDS011;37741;49.748;8.490;2024-02-26T08:08:34;2.92;;;1.35;;
51660;SDS011;37741;49.748;8.490;2024-02-26T08:11:00;3.20;;;1.48;;
51660;SDS011;37741;49.748;8.490;2024-02-26T08:13:25;3.17;;;1.52;;
51660;SDS011;37741;49.748;8.490;2024-02-26T08:15:51;2.63;;;1.52;;
51660;SDS011;37741;49.748;8.490;2024-02-26T08:18:20;2.88;;;1.52;;
51660;SDS011;37741;49.748;8.490;2024-02-26T08:20:46;3.17;;;1.67;;
51660;SDS011;37741;49.748;8.490;2024-02-26T08:23:14;2.42;;;1.20;;
51660;SDS011;37741;49.748;8.490;2024-02-26T08:25:39;3.85;;;1.75;;
51660;SDS011;37741;49.748;8.490;2024-02-26T08:28:05;3.38;;;1.60;;
51660;SDS011;37741;49.748;8.490;2024-02-26T08:30:31;2.80;;;1.50;;
51660;SDS011;37741;49.748;8.490;2024-02-26T08:32:56;4.45;;;1.33;;
51660;SDS011;37741;49.748;8.490;2024-02-26T08:35:22;2.58;;;1.48;;
51660;SDS011;37741;49.748;8.490;2024-02-26T08:37:48;2.80;;;1.40;;
51660;SDS011;37741;49.748;8.490;2024-02-26T08:40:14;3.03;;;1.45;;
51660;SDS011;37741;49.748;8.490;2024-02-26T08:42:42;3.00;;;1.27;;
51660;SDS011;37741;49.748;8.490;2024-02-26T08:45:08;2.55;;;1.27;;
51660;SDS011;37741;49.748;8.490;2024-02-26T08:47:37;2.63;;;1.38;;
51660;SDS011;37741;49.748;8.490;2024-02-26T08:50:03;2.45;;;1.25;;
51660;SDS011;37741;49.748;8.490;2024-02-26T08:52:30;4.32;;;1.13;;
51660;SDS011;37741;49.748;8.490;2024-02-26T08:54:56;2.10;;;1.10;;
51660;SDS011;37741;49.748;8.490;2024-02-26T08:57:22;2.88;;;1.60;;
51660;SDS011;37741;49.748;8.490;2024-02-26T08:59:48;4.47;;;1.63;;
51660;SDS011;37741;49.748;8.490;2024-02-26T09:02:13;3.38;;;1.80;;
51660;SDS011;37741;49.748;8.490;2024-02-26T09:04:39;4.68;;;1.55;;
51660;SDS011;37741;49.748;8.490;2024-02-26T09:07:05;2.38;;;1.38;;
51660;SDS011;37741;49.748;8.490;2024-02-26T09:09:31;3.65;;;1.70;;
51660;SDS011;37741;49.748;8.490;2024-02-26T09:11:57;2.85;;;1.42;;
51660;SDS011;37741;49.748;8.490;2024-02-26T09:14:23;3.03;;;1.58;;
51660;SDS011;37741;49.748;8.490;2024-02-26T09:16:49;2.97;;;1.65;;
51660;SDS011;37741;49.748;8.490;2024-02-26T09:19:14;2.63;;;1.45;;
51660;SDS011;37741;49.748;8.490;2024-02-26T09:21:43;2.83;;;1.60;;
51660;SDS011;37741;49.748;8.490;2024-02-26T09:24:10;2.40;;;1.50;;
51660;SDS011;37741;49.748;8.490;2024-02-26T09:26:39;3.22;;;1.45;;
51660;SDS011;37741;49.748;8.490;2024-02-26T09:29:05;2.95;;;1.27;;
51660;SDS011;37741;49.748;8.490;2024-02-26T09:31:33;2.95;;;1.45;;
51660;SDS011;37741;49.748;8.490;2024-02-26T09:33:59;2.47;;;1.55;;
51660;SDS011;37741;49.748;8.490;2024-02-26T09:36:25;2.30;;;1.52;;
51660;SDS011;37741;49.748;8.490;2024-02-26T09:38:50;3.35;;;1.80;;
51660;SDS011;37741;49.748;8.490;2024-02-26T09:41:16;2.95;;;1.45;;
51660;SDS011;37741;49.748;8.490;2024-02-26T09:43:43;3.15;;;1.88;;
51660;SDS011;37741;49.748;8.490;2024-02-26T09:46:11;2.70;;;1.35;;
51660;SDS011;37741;49.748;8.490;2024-02-26T09:48:37;2.88;;;1.50;;
51660;SDS011;37741;49.748;8.490;2024-02-26T09:51:03;4.57;;;1.70;;
51660;SDS011;37741;49.748;8.490;2024-02-26T09:53:29;3.03;;;1.60;;
51660;SDS011;37741;49.748;8.490;2024-02-26T09:56:00;3.70;;;1.90;;
51660;SDS011;37741;49.748;8.490;2024-02-26T09:58:27;3.05;;;2.10;;
51660;SDS011;37741;49.748;8.490;2024-02-26T10:00:56;4.40;;;2.03;;
51660;SDS011;37741;49.748;8.490;2024-02-26T10:03:25;5.30;;;1.73;;
51660;SDS011;37741;49.748;8.490;2024-02-26T10:05:59;2.90;;;1.80;;
51660;SDS011;37741;49.748;8.490;2024-02-26T10:08:27;3.47;;;2.20;;
51660;SDS011;37741;49.748;8.490;2024-02-26T10:10:57;4.28;;;2.00;;
51660;SDS011;37741;49.748;8.490;2024-02-26T10:13:26;4.07;;;2.17;;
51660;SDS011;37741;49.748;8.490;2024-02-26T10:15:52;3.33;;;1.75;;
51660;SDS011;37741;49.748;8.490;2024-02-26T10:18:18;3.53;;;2.22;;
51660;SDS011;37741;49.748;8.490;2024-02-26T10:23:30;4.03;;;2.58;;
51660;SDS011;37741;49.748;8.490;2024-02-26T10:25:56;4.75;;;2.55;;
51660;SDS011;37741;49.748;8.490;2024-02-26T10:28:22;6.13;;;3.08;;
51660;SDS011;37741;49.748;8.490;2024-02-26T10:30:51;4.30;;;2.55;;
51660;SDS011;37741;49.748;8.490;2024-02-26T10:33:18;4.68;;;2.50;;
51660;SDS011;37741;49.748;8.490;2024-02-26T10:35:47;3.92;;;2.70;;
51660;SDS011;37741;49.748;8.490;2024-02-26T10:38:13;3.80;;;2.50;;
51660;SDS011;37741;49.748;8.490;2024-02-26T10:40:42;4.57;;;2.78;;
51660;SDS011;37741;49.748;8.490;2024-02-26T10:43:08;3.38;;;2.42;;
51660;SDS011;37741;49.748;8.490;2024-02-26T10:45:33;5.32;;;2.58;;
51660;SDS011;37741;49.748;8.490;2024-02-26T10:48:00;3.97;;;2.05;;
51660;SDS011;37741;49.748;8.490;2024-02-26T10:50:28;4.50;;;2.67;;
51660;SDS011;37741;49.748;8.490;2024-02-26T10:52:54;3.70;;;2.40;;
51660;SDS011;37741;49.748;8.490;2024-02-26T10:55:21;6.50;;;3.60;;
51660;SDS011;37741;49.748;8.490;2024-02-26T10:57:49;5.18;;;3.13;;
51660;SDS011;37741;49.748;8.490;2024-02-26T11:00:17;5.28;;;3.22;;
51660;SDS011;37741;49.748;8.490;2024-02-26T11:02:44;4.50;;;3.20;;
51660;SDS011;37741;49.748;8.490;2024-02-26T11:05:11;4.10;;;2.90;;
51660;SDS011;37741;49.748;8.490;2024-02-26T11:07:38;4.47;;;3.00;;
51660;SDS011;37741;49.748;8.490;2024-02-26T11:10:06;4.45;;;2.90;;
51660;SDS011;37741;49.748;8.490;2024-02-26T11:12:32;4.20;;;2.83;;
51660;SDS011;37741;49.748;8.490;2024-02-26T11:15:02;4.30;;;2.97;;
51660;SDS011;37741;49.748;8.490;2024-02-26T11:17:28;4.75;;;2.97;;
51660;SDS011;37741;49.748;8.490;2024-02-26T11:19:56;4.28;;;2.80;;
51660;SDS011;37741;49.748;8.490;2024-02-26T11:22:26;5.40;;;3.25;;
51660;SDS011;37741;49.748;8.490;2024-02-26T11:24:58;4.88;;;2.95;;
51660;SDS011;37741;49.748;8.490;2024-02-26T11:27:30;4.13;;;2.78;;
51660;SDS011;37741;49.748;8.490;2024-02-26T11:30:02;4.38;;;2.53;;
51660;SDS011;37741;49.748;8.490;2024-02-26T11:32:30;3.45;;;2.45;;
51660;SDS011;37741;49.748;8.490;2024-02-26T11:34:56;3.75;;;2.53;;
51660;SDS011;37741;49.748;8.490;2024-02-26T11:37:23;5.78;;;2.58;;
51660;SDS011;37741;49.748;8.490;2024-02-26T11:39:51;4.55;;;2.80;;
51660;SDS011;37741;49.748;8.490;2024-02-26T11:42:17;4.93;;;2.83;;
51660;SDS011;37741;49.748;8.490;2024-02-26T11:44:48;5.63;;;2.63;;
51660;SDS011;37741;49.748;8.490;2024-02-26T11:47:21;4.10;;;2.42;;
51660;SDS011;37741;49.748;8.490;2024-02-26T11:49:48;5.38;;;2.35;;
51660;SDS011;37741;49.748;8.490;2024-02-26T11:52:14;3.70;;;2.28;;
51660;SDS011;37741;49.748;8.490;2024-02-26T11:54:50;3.72;;;2.00;;
51660;SDS011;37741;49.748;8.490;2024-02-26T11:59:50;3.50;;;2.50;;
51660;SDS011;37741;49.748;8.490;2024-02-26T12:05:12;3.42;;;2.22;;
51660;SDS011;37741;49.748;8.490;2024-02-26T12:07:55;3.35;;;2.25;;
51660;SDS011;37741;49.748;8.490;2024-02-26T12:12:54;3.05;;;1.92;;
51660;SDS011;37741;49.748;8.490;2024-02-26T12:15:22;3.45;;;1.90;;
51660;SDS011;37741;49.748;8.490;2024-02-26T12:17:48;3.70;;;2.25;;
51660;SDS011;37741;49.748;8.490;2024-02-26T12:20:15;3.33;;;1.85;;
51660;SDS011;37741;49.748;8.490;2024-02-26T12:22:44;3.55;;;2.17;;
51660;SDS011;37741;49.748;8.490;2024-02-26T12:25:13;3.30;;;1.95;;
51660;SDS011;37741;49.748;8.490;2024-02-26T12:27:39;3.42;;;2.30;;
51660;SDS011;37741;49.748;8.490;2024-02-26T12:30:04;2.60;;;1.80;;
51660;SDS011;37741;49.748;8.490;2024-02-26T12:32:31;3.97;;;2.65;;
51660;SDS011;37741;49.748;8.490;2024-02-26T12:34:57;2.67;;;1.77;;
51660;SDS011;37741;49.748;8.490;2024-02-26T12:37:25;3.45;;;2.10;;
51660;SDS011;37741;49.748;8.490;2024-02-26T12:39:52;3.35;;;2.17;;
51660;SDS011;37741;49.748;8.490;2024-02-26T12:42:17;3.92;;;2.63;;
51660;SDS011;37741;49.748;8.490;2024-02-26T12:44:45;3.53;;;2.20;;
51660;SDS011;37741;49.748;8.490;2024-02-26T12:47:11;4.10;;;2.10;;
51660;SDS011;37741;49.748;8.490;2024-02-26T12:49:42;3.67;;;2.17;;
51660;SDS011;37741;49.748;8.490;2024-02-26T12:52:09;3.13;;;2.17;;
51660;SDS011;37741;49.748;8.490;2024-02-26T12:54:36;3.08;;;1.95;;
51660;SDS011;37741;49.748;8.490;2024-02-26T12:57:04;4.50;;;2.00;;
51660;SDS011;37741;49.748;8.490;2024-02-26T12:59:31;3.05;;;1.95;;
51660;SDS011;37741;49.748;8.490;2024-02-26T13:01:59;3.20;;;2.00;;
51660;SDS011;37741;49.748;8.490;2024-02-26T13:04:27;4.25;;;2.30;;
51660;SDS011;37741;49.748;8.490;2024-02-26T13:06:54;3.28;;;1.95;;
51660;SDS011;37741;49.748;8.490;2024-02-26T13:09:20;2.97;;;2.15;;
51660;SDS011;37741;49.748;8.490;2024-02-26T13:11:53;3.90;;;2.25;;
51660;SDS011;37741;49.748;8.490;2024-02-26T13:14:21;4.35;;;2.28;;
51660;SDS011;37741;49.748;8.490;2024-02-26T13:16:59;4.63;;;2.63;;
51660;SDS011;37741;49.748;8.490;2024-02-26T13:19:26;3.85;;;2.30;;
51660;SDS011;37741;49.748;8.490;2024-02-26T13:21:55;4.15;;;2.40;;
51660;SDS011;37741;49.748;8.490;2024-02-26T13:24:21;5.47;;;2.30;;
51660;SDS011;37741;49.748;8.490;2024-02-26T13:26:53;3.55;;;2.17;;
51660;SDS011;37741;49.748;8.490;2024-02-26T13:29:22;4.80;;;2.47;;
51660;SDS011;37741;49.748;8.490;2024-02-26T13:31:54;3.58;;;2.30;;
51660;SDS011;37741;49.748;8.490;2024-02-26T13:34:22;5.00;;;2.40;;
51660;SDS011;37741;49.748;8.490;2024-02-26T13:36:50;3.33;;;2.28;;
51660;SDS011;37741;49.748;8.490;2024-02-26T13:39:25;3.00;;;2.00;;
51660;SDS011;37741;49.748;8.490;2024-02-26T13:41:53;3.75;;;2.35;;
51660;SDS011;37741;49.748;8.490;2024-02-26T13:44:21;3.17;;;1.90;;
51660;SDS011;37741;49.748;8.490;2024-02-26T13:46:49;3.72;;;2.35;;
51660;SDS011;37741;49.748;8.490;2024-02-26T13:49:15;3.63;;;2.30;;
51660;SDS011;37741;49.748;8.490;2024-02-26T13:51:40;4.60;;;2.08;;
51660;SDS011;37741;49.748;8.490;2024-02-26T13:54:06;3.35;;;2.05;;
51660;SDS011;37741;49.748;8.490;2024-02-26T13:56:32;3.42;;;2.28;;
51660;SDS011;37741;49.748;8.490;2024-02-26T13:58:58;3.45;;;2.00;;
51660;SDS011;37741;49.748;8.490;2024-02-26T14:01:25;4.45;;;2.20;;
51660;SDS011;37741;49.748;8.490;2024-02-26T14:03:50;3.92;;;2.20;;
51660;SDS011;37741;49.748;8.490;2024-02-26T14:06:16;2.83;;;2.10;;
51660;SDS011;37741;49.748;8.490;2024-02-26T14:08:42;3.83;;;2.00;;
51660;SDS011;37741;49.748;8.490;2024-02-26T14:11:08;5.22;;;2.00;;
51660;SDS011;37741;49.748;8.490;2024-02-26T14:13:34;3.20;;;1.90;;
51660;SDS011;37741;49.748;8.490;2024-02-26T14:15:59;3.67;;;2.60;;
51660;SDS011;37741;49.748;8.490;2024-02-26T14:18:25;4.20;;;2.55;;
51660;SDS011;37741;49.748;8.490;2024-02-26T14:20:52;4.40;;;2.55;;
51660;SDS011;37741;49.748;8.490;2024-02-26T14:23:18;4.68;;;2.42;;
51660;SDS011;37741;49.748;8.490;2024-02-26T14:25:44;3.72;;;2.50;;
51660;SDS011;37741;49.748;8.490;2024-02-26T14:28:09;4.63;;;2.47;;
51660;SDS011;37741;49.748;8.490;2024-02-26T14:30:35;3.45;;;2.42;;
51660;SDS011;37741;49.748;8.490;2024-02-26T14:33:01;4.35;;;2.53;;
51660;SDS011;37741;49.748;8.490;2024-02-26T14:35:26;3.78;;;2.40;;
51660;SDS011;37741;49.748;8.490;2024-02-26T14:37:52;4.55;;;2.60;;
51660;SDS011;37741;49.748;8.490;2024-02-26T14:40:19;4.65;;;2.33;;
51660;SDS011;37741;49.748;8.490;2024-02-26T14:42:44;3.97;;;2.42;;
51660;SDS011;37741;49.748;8.490;2024-02-26T14:45:10;4.03;;;2.55;;
51660;SDS011;37741;49.748;8.490;2024-02-26T14:47:36;4.80;;;2.53;;
51660;SDS011;37741;49.748;8.490;2024-02-26T14:50:02;3.53;;;2.20;;
51660;SDS011;37741;49.748;8.490;2024-02-26T14:52:29;5.78;;;3.00;;
51660;SDS011;37741;49.748;8.490;2024-02-26T14:54:54;5.05;;;2.80;;
51660;SDS011;37741;49.748;8.490;2024-02-26T14:57:20;5.65;;;3.10;;
51660;SDS011;37741;49.748;8.490;2024-02-26T14:59:46;4.25;;;2.72;;
51660;SDS011;37741;49.748;8.490;2024-02-26T15:02:12;5.50;;;2.90;;
51660;SDS011;37741;49.748;8.490;2024-02-26T15:04:38;5.63;;;2.95;;